PWSweather.com
Personal Weather Stations
Station Observations

AwhituWaiuku, CA 268400

Lat: -37.058, Lon: -174.6346

Elevation: 250

Station Type: Personal

http://www.weather-display.com/windy/gb/grahamsbeach.htm

High Low Average
Temperature 69.4°F20.8°F 62.0°F16.7°F 65.6°F18.7°F
Dew Point 68.3°F20.2°F 61.4°F16.3°F 64.6°F18.1°F
Winds 13.4 mph E21.6 mph E 3.4 mph 5.5 mph 8.1 mph 13.0 mph
Wind Gusts 24.0 mph38.6 mph 7.0 mph11.3 mph 13.5 mph21.7 mph
Humidity 98% 87% 97%
Pressure 30.02 in1016.60 in 29.71 in1006.10 in -
Precipitation 0.21 in5.30 in - -
Hour Temp Dew Point Humidity Winds Wind Gusts Pressure Precip Precip Rate Daily Precip Total
12:00 AM 65.6°F18.7°C 65.0°F18.3°C 98% 9.5 mph E15.3 kmh E 11.0 mph17.7 kmh 30.02 in1016.6 mb 0.00 in0.0 mm 0.00 in/hr0.0 mm/hr 0.00 in0.0 mm
12:30 AM 65.6°F18.7°C 65.0°F18.3°C 98% 4.0 mph ENE6.4 kmh ENE 10.0 mph16.1 kmh 30.01 in1016.3 mb 0.00 in0.0 mm 0.00 in/hr0.0 mm/hr 0.00 in0.0 mm
01:00 AM 65.4°F18.6°C 64.8°F18.2°C 98% 7.1 mph NNE11.4 kmh NNE 14.0 mph22.5 kmh 30.01 in1016.3 mb 0.00 in0.0 mm 0.00 in/hr0.0 mm/hr 0.00 in0.0 mm
01:30 AM 64.3°F17.9°C 63.7°F17.6°C 98% 6.7 mph NNE10.8 kmh NNE 17.0 mph27.4 kmh 30.01 in1016.3 mb 0.00 in0.0 mm 0.00 in/hr0.0 mm/hr 0.00 in0.0 mm
02:00 AM 64.1°F17.8°C 63.5°F17.5°C 98% 8.1 mph NE13.0 kmh NE 11.0 mph17.7 kmh 30.00 in1015.9 mb 0.00 in0.0 mm 0.00 in/hr0.0 mm/hr 0.00 in0.0 mm
02:30 AM 63.9°F17.7°C 63.3°F17.4°C 98% 9.8 mph N15.8 kmh N 16.0 mph25.7 kmh 30.00 in1015.9 mb 0.00 in0.0 mm 0.00 in/hr0.0 mm/hr 0.00 in0.0 mm
03:00 AM 63.0°F17.2°C 62.4°F16.9°C 98% 6.7 mph NE10.8 kmh NE 9.0 mph14.5 kmh 29.98 in1015.2 mb 0.00 in0.0 mm 0.00 in/hr0.0 mm/hr 0.00 in0.0 mm
03:30 AM 62.7°F17.1°C 62.2°F16.8°C 98% 6.0 mph NE9.7 kmh NE 11.0 mph17.7 kmh 29.98 in1015.2 mb 0.02 in0.5 mm 0.04 in/hr1.0 mm/hr 0.02 in0.5 mm
04:00 AM 63.0°F17.2°C 62.4°F16.9°C 98% 6.3 mph NE10.1 kmh NE 9.0 mph14.5 kmh 29.97 in1014.9 mb 0.04 in1.0 mm 0.08 in/hr2.0 mm/hr 0.06 in1.5 mm
04:30 AM 63.2°F17.3°C 62.6°F17.0°C 98% 7.2 mph NE11.6 kmh NE 16.0 mph25.7 kmh 29.97 in1014.9 mb 0.00 in0.0 mm 0.00 in/hr0.0 mm/hr 0.06 in1.5 mm
05:00 AM 63.3°F17.4°C 62.7°F17.1°C 98% 4.8 mph ESE7.7 kmh ESE 8.0 mph12.9 kmh 29.96 in1014.6 mb 0.01 in0.3 mm 0.02 in/hr0.5 mm/hr 0.07 in1.8 mm
05:30 AM 63.3°F17.4°C 62.7°F17.1°C 98% 6.4 mph W10.3 kmh W 11.0 mph17.7 kmh 29.96 in1014.6 mb 0.00 in0.0 mm 0.00 in/hr0.0 mm/hr 0.07 in1.8 mm
06:00 AM 63.5°F17.5°C 62.9°F17.2°C 98% 7.8 mph NE12.6 kmh NE 13.0 mph20.9 kmh 29.95 in1014.2 mb 0.00 in0.0 mm 0.00 in/hr0.0 mm/hr 0.07 in1.8 mm
06:30 AM 63.6°F17.6°C 63.0°F17.2°C 98% 6.3 mph ENE10.1 kmh ENE 9.0 mph14.5 kmh 29.95 in1014.2 mb 0.00 in0.0 mm 0.00 in/hr0.0 mm/hr 0.07 in1.8 mm
07:00 AM 63.8°F17.7°C 63.2°F17.3°C 98% 5.3 mph ESE8.5 kmh ESE 13.0 mph20.9 kmh 29.95 in1014.2 mb 0.00 in0.0 mm 0.00 in/hr0.0 mm/hr 0.07 in1.8 mm
07:30 AM 64.1°F17.8°C 63.5°F17.5°C 98% 7.5 mph E12.1 kmh E 11.0 mph17.7 kmh 29.95 in1014.2 mb 0.00 in0.0 mm 0.00 in/hr0.0 mm/hr 0.07 in1.8 mm
08:00 AM 64.9°F18.3°C 64.3°F17.9°C 98% 6.1 mph ESE9.8 kmh ESE 8.0 mph12.9 kmh 29.95 in1014.2 mb 0.00 in0.0 mm 0.00 in/hr0.0 mm/hr 0.07 in1.8 mm
08:30 AM 65.6°F18.7°C 65.0°F18.3°C 98% 5.6 mph NNE9.0 kmh NNE 14.0 mph22.5 kmh 29.95 in1014.2 mb 0.01 in0.3 mm 0.02 in/hr0.5 mm/hr 0.08 in2.0 mm
09:00 AM 66.0°F18.9°C 65.5°F18.6°C 98% 7.1 mph N11.4 kmh N 14.0 mph22.5 kmh 29.96 in1014.6 mb 0.00 in0.0 mm 0.00 in/hr0.0 mm/hr 0.08 in2.0 mm
09:30 AM 66.5°F19.2°C 65.9°F18.8°C 98% 8.1 mph E13.0 kmh E 17.0 mph27.4 kmh 29.95 in1014.2 mb 0.00 in0.0 mm 0.00 in/hr0.0 mm/hr 0.08 in2.0 mm
10:00 AM 67.7°F19.8°C 67.1°F19.5°C 98% 9.8 mph NE15.8 kmh NE 16.0 mph25.7 kmh 29.94 in1013.9 mb 0.00 in0.0 mm 0.00 in/hr0.0 mm/hr 0.08 in2.0 mm
10:30 AM 68.3°F20.2°C 67.7°F19.8°C 98% 10.7 mph N17.2 kmh N 20.0 mph32.2 kmh 29.94 in1013.9 mb 0.00 in0.0 mm 0.00 in/hr0.0 mm/hr 0.08 in2.0 mm
11:00 AM 68.5°F20.3°C 66.7°F19.3°C 94% 8.4 mph E13.5 kmh E 21.0 mph33.8 kmh 29.93 in1013.5 mb 0.00 in0.0 mm 0.00 in/hr0.0 mm/hr 0.08 in2.0 mm
11:30 AM 69.4°F20.8°C 66.0°F18.9°C 89% 8.9 mph NE14.3 kmh NE 15.0 mph24.1 kmh 29.92 in1013.2 mb 0.00 in0.0 mm 0.00 in/hr0.0 mm/hr 0.08 in2.0 mm
12:00 PM 69.4°F20.8°C 66.6°F19.2°C 91% 5.9 mph NE9.5 kmh NE 10.0 mph16.1 kmh 29.91 in1012.9 mb 0.00 in0.0 mm 0.00 in/hr0.0 mm/hr 0.08 in2.0 mm
12:30 PM 69.2°F20.7°C 65.8°F18.8°C 89% 3.4 mph E5.5 kmh E 7.0 mph11.3 kmh 29.89 in1012.2 mb 0.00 in0.0 mm 0.00 in/hr0.0 mm/hr 0.08 in2.0 mm
01:00 PM 69.4°F20.8°C 65.4°F18.6°C 87% 8.3 mph ENE13.4 kmh ENE 15.0 mph24.1 kmh 29.88 in1011.9 mb 0.00 in0.0 mm 0.00 in/hr0.0 mm/hr 0.08 in2.0 mm
01:30 PM 69.2°F20.7°C 66.1°F18.9°C 90% 7.2 mph SE11.6 kmh SE 14.0 mph22.5 kmh 29.86 in1011.2 mb 0.00 in0.0 mm 0.00 in/hr0.0 mm/hr 0.08 in2.0 mm
02:00 PM 68.5°F20.3°C 67.0°F19.4°C 95% 8.5 mph NE13.7 kmh NE 16.0 mph25.7 kmh 29.86 in1011.2 mb 0.00 in0.0 mm 0.00 in/hr0.0 mm/hr 0.08 in2.0 mm
02:30 PM 69.1°F20.6°C 66.4°F19.1°C 91% 10.5 mph ENE16.9 kmh ENE 15.0 mph24.1 kmh 29.85 in1010.8 mb 0.00 in0.0 mm 0.00 in/hr0.0 mm/hr 0.08 in2.0 mm
03:00 PM 68.9°F20.5°C 68.3°F20.2°C 98% 8.3 mph E13.4 kmh E 11.0 mph17.7 kmh 29.84 in1010.5 mb 0.00 in0.0 mm 0.00 in/hr0.0 mm/hr 0.08 in2.0 mm
03:30 PM 68.1°F20.1°C 65.4°F18.6°C 91% 11.1 mph SSE17.9 kmh SSE 24.0 mph38.6 kmh 29.84 in1010.5 mb 0.00 in0.0 mm 0.00 in/hr0.0 mm/hr 0.08 in2.0 mm
04:00 PM 67.7°F19.8°C 67.1°F19.5°C 98% 5.7 mph N9.2 kmh N 14.0 mph22.5 kmh 29.84 in1010.5 mb 0.00 in0.0 mm 0.00 in/hr0.0 mm/hr 0.08 in2.0 mm
04:30 PM 67.0°F19.4°C 66.4°F19.1°C 98% 7.4 mph E11.9 kmh E 13.0 mph20.9 kmh 29.84 in1010.5 mb 0.00 in0.0 mm 0.00 in/hr0.0 mm/hr 0.08 in2.0 mm
05:00 PM 66.5°F19.2°C 65.9°F18.8°C 98% 8.2 mph SE13.2 kmh SE 10.0 mph16.1 kmh 29.83 in1010.2 mb 0.00 in0.0 mm 0.00 in/hr0.0 mm/hr 0.08 in2.0 mm
05:30 PM 66.4°F19.1°C 65.8°F18.8°C 98% 6.1 mph SE9.8 kmh SE 9.0 mph14.5 kmh 29.82 in1009.8 mb 0.00 in0.0 mm 0.00 in/hr0.0 mm/hr 0.08 in2.0 mm
06:00 PM 66.4°F19.1°C 65.8°F18.8°C 98% 5.6 mph E9.0 kmh E 9.0 mph14.5 kmh 29.82 in1009.8 mb 0.00 in0.0 mm 0.00 in/hr0.0 mm/hr 0.08 in2.0 mm
06:30 PM 66.2°F19.0°C 65.6°F18.7°C 98% 5.0 mph SE8.0 kmh SE 9.0 mph14.5 kmh 29.82 in1009.8 mb 0.00 in0.0 mm 0.00 in/hr0.0 mm/hr 0.08 in2.0 mm
07:00 PM 64.9°F18.3°C 64.3°F17.9°C 98% 9.5 mph E15.3 kmh E 14.0 mph22.5 kmh 29.81 in1009.5 mb 0.00 in0.0 mm 0.00 in/hr0.0 mm/hr 0.08 in2.0 mm
07:30 PM 64.3°F17.9°C 63.7°F17.6°C 98% 11.2 mph ESE18.0 kmh ESE 16.0 mph25.7 kmh 29.80 in1009.1 mb 0.00 in0.0 mm 0.00 in/hr0.0 mm/hr 0.08 in2.0 mm
08:00 PM 64.3°F17.9°C 63.7°F17.6°C 98% 8.8 mph SE14.2 kmh SE 14.0 mph22.5 kmh 29.79 in1008.8 mb 0.00 in0.0 mm 0.00 in/hr0.0 mm/hr 0.08 in2.0 mm
08:30 PM 64.8°F18.2°C 64.2°F17.9°C 98% 9.3 mph ESE15.0 kmh ESE 15.0 mph24.1 kmh 29.78 in1008.5 mb 0.00 in0.0 mm 0.00 in/hr0.0 mm/hr 0.08 in2.0 mm
09:00 PM 64.0°F17.8°C 63.4°F17.4°C 98% 10.7 mph SE17.2 kmh SE 15.0 mph24.1 kmh 29.78 in1008.5 mb 0.02 in0.5 mm 0.04 in/hr1.0 mm/hr 0.10 in2.5 mm
09:30 PM 63.2°F17.3°C 62.6°F17.0°C 98% 11.8 mph ESE19.0 kmh ESE 15.0 mph24.1 kmh 29.77 in1008.1 mb 0.02 in0.5 mm 0.04 in/hr1.0 mm/hr 0.11 in2.8 mm
10:00 PM 63.2°F17.3°C 62.7°F17.1°C 98% 12.2 mph ESE19.6 kmh ESE 16.0 mph25.7 kmh 29.75 in1007.5 mb 0.03 in0.8 mm 0.06 in/hr1.5 mm/hr 0.14 in3.6 mm
10:30 PM 63.2°F17.3°C 62.6°F17.0°C 98% 13.0 mph ESE20.9 kmh ESE 15.0 mph24.1 kmh 29.74 in1007.1 mb 0.01 in0.3 mm 0.02 in/hr0.5 mm/hr 0.15 in3.8 mm
11:00 PM 62.0°F16.7°C 61.4°F16.3°C 98% 13.4 mph E21.6 kmh E 21.0 mph33.8 kmh 29.72 in1006.4 mb 0.03 in0.8 mm 0.06 in/hr1.5 mm/hr 0.19 in4.8 mm
11:30 PM 62.1°F16.7°C 61.5°F16.4°C 98% 11.1 mph NE17.9 kmh NE 18.0 mph29.0 kmh 29.71 in1006.1 mb 0.02 in0.5 mm 0.04 in/hr1.0 mm/hr 0.20 in5.1 mm